Thor Heyerdahl — DKQH — position and weather

sailwx.info

Track history (hours):
 
Tides and Currents Weather Stations Pressure Air Temp Water Temp Dewpoint Dewpoint Depression Visibility Wind Speed Wind Dir Waves Ship Positions

Thor Heyerdahl

Last reported at 2020-Sep-24 13:49 UTC. Time now 2020-Sep-26 09:08 UTC.
Position N 54°44' E 010°05'.

beam 6.5 m; draft 2.2 m.

Type: Sailing vessel. MMSI: 211232340.

Date/timePositionNaut miles runAvg speedWind from/ knotsBaromVisibWave heightAir tempDewpointWater temp
2020-Sep-24 13:49N 54°44' E 010°05'19 3.0
2020-Sep-24 07:28N 54°26' E 010°11'0 0.0
2020-Sep-24 06:19N 54°26' E 010°11'0 0.0
2020-Sep-24 05:19N 54°26' E 010°11'0 0.0
2020-Sep-24 02:55N 54°26' E 010°11'0 0.0
2020-Sep-24 02:25N 54°26' E 010°11'0 0.0
2020-Sep-24 01:55N 54°26' E 010°11'0 0.0
2020-Sep-23 21:28N 54°26' E 010°11'0 0.0
2020-Sep-23 19:58N 54°26' E 010°11'0 0.0
2020-Sep-23 19:16N 54°26' E 010°11'0 0.0
2020-Sep-23 18:58N 54°26' E 010°11'6 1.5
2020-Sep-23 14:52N 54°20' E 010°11'0 0.0
2020-Sep-23 13:55N 54°20' E 010°11'0 0.0
2020-Sep-23 11:55N 54°20' E 010°11'0 0.0
2020-Sep-23 10:58N 54°20' E 010°11'0 0.0
2020-Sep-23 10:28N 54°20' E 010°11'0 0.0
2020-Sep-23 01:52N 54°20' E 010°11'0 0.0
2020-Sep-22 22:55N 54°20' E 010°11'0 0.0
2020-Sep-22 16:28N 54°20' E 010°11'0 0.0
2020-Sep-22 15:58N 54°20' E 010°11'0 0.0
2020-Sep-22 15:28N 54°20' E 010°11'0 0.0
2020-Sep-22 11:52N 54°20' E 010°11'0 0.0
2020-Sep-22 10:52N 54°20' E 010°11'0 0.0
2020-Sep-22 09:55N 54°20' E 010°11'0 0.0
2020-Sep-22 09:25N 54°20' E 010°11'0 0.0
2020-Sep-22 07:55N 54°20' E 010°11'0 0.0
2020-Sep-22 07:28N 54°20' E 010°11'0 0.0
2020-Sep-22 06:58N 54°20' E 010°11'0 0.0
2020-Sep-22 04:58N 54°20' E 010°11'0 0.0
2020-Sep-22 03:58N 54°20' E 010°11'0 0.0
2020-Sep-22 03:16N 54°20' E 010°11'0 0.0
2020-Sep-21 22:52N 54°20' E 010°11'0 0.0
2020-Sep-21 21:52N 54°20' E 010°11'0 0.0
2020-Sep-21 21:22N 54°20' E 010°11'0 0.0
2020-Sep-21 20:25N 54°20' E 010°11'0 0.0
2020-Sep-21 17:28N 54°20' E 010°11'0 0.0
2020-Sep-21 15:58N 54°20' E 010°11'0 0.0
2020-Sep-21 13:58N 54°20' E 010°11'0 0.0
2020-Sep-21 10:19N 54°20' E 010°11'0 0.0
2020-Sep-21 08:22N 54°20' E 010°11'0 0.0
2020-Sep-21 07:22N 54°20' E 010°11'0 0.0
2020-Sep-21 05:25N 54°20' E 010°11'0 0.0
2020-Sep-21 01:28N 54°20' E 010°11'0 0.0
2020-Sep-21 00:28N 54°20' E 010°11'0 0.0
2020-Sep-20 23:28N 54°20' E 010°11'0 0.0
2020-Sep-20 19:22N 54°20' E 010°11'0 0.0
2020-Sep-20 18:52N 54°20' E 010°11'0 0.0
2020-Sep-20 17:52N 54°20' E 010°11'0 0.0
2020-Sep-20 17:22N 54°20' E 010°11'0 0.0
2020-Sep-20 16:52N 54°20' E 010°11'0 0.0
2020-Sep-20 16:25N 54°20' E 010°11'0 0.0
2020-Sep-20 15:55N 54°20' E 010°11'0 0.0
2020-Sep-20 14:22N 54°20' E 010°11'0 0.0
2020-Sep-20 12:28N 54°20' E 010°11'0 0.0
2020-Sep-20 11:58N 54°20' E 010°11'0 0.0
2020-Sep-20 11:28N 54°20' E 010°11'0 0.0
2020-Sep-20 10:28N 54°20' E 010°11'1 0.3
2020-Sep-20 08:30N 54°20' E 010°10'2 1.4
2020-Sep-20 06:59N 54°22' E 010°11'0 0.0
2020-Sep-20 05:59N 54°22' E 010°11'0 0.0
2020-Sep-19 23:59N 54°22' E 010°11'0 0.0
2020-Sep-19 20:29N 54°22' E 010°11'0 0.0
2020-Sep-19 18:56N 54°22' E 010°11'0 0.0
2020-Sep-19 17:29N 54°22' E 010°11'0 0.0
2020-Sep-19 16:29N 54°22' E 010°11'2 0.9
2020-Sep-19 14:00N 54°24' E 010°12'14 4.6
2020-Sep-19 11:01N 54°37' E 010°22'5 4.8
2020-Sep-19 10:01N 54°41' E 010°27'10 4.1
2020-Sep-19 07:28N 54°49' E 010°37'0 0.0
2020-Sep-19 06:55N 54°49' E 010°37'0 0.0
2020-Sep-19 04:49N 54°49' E 010°37'0 0.0
2020-Sep-19 04:25N 54°49' E 010°37'0 0.0
2020-Sep-19 02:25N 54°49' E 010°37'0 0.0
2020-Sep-19 01:22N 54°49' E 010°37'0 0.0
2020-Sep-18 23:25N 54°49' E 010°37'0 0.0
2020-Sep-18 22:25N 54°49' E 010°37'0 0.0
2020-Sep-18 19:55N 54°49' E 010°37'0 0.0
2020-Sep-18 18:55N 54°49' E 010°37'0 0.0
2020-Sep-18 17:55N 54°49' E 010°37'3 0.9
2020-Sep-18 15:00N 54°48' E 010°34'1 0.6
2020-Sep-18 13:30N 54°48' E 010°32'0 0.1
2020-Sep-18 10:30N 54°48' E 010°32'3 1.0
2020-Sep-18 07:26N 54°51' E 010°31'0 0.0
2020-Sep-18 06:56N 54°51' E 010°31'0 0.0
2020-Sep-18 04:50N 54°51' E 010°31'0 0.0
2020-Sep-18 02:44N 54°51' E 010°31'0 0.0
2020-Sep-18 01:26N 54°51' E 010°31'0 0.0
2020-Sep-18 00:56N 54°51' E 010°31'0 0.0
2020-Sep-17 19:26N 54°51' E 010°31'0 0.0
2020-Sep-17 16:59N 54°51' E 010°31'0 0.0
2020-Sep-17 15:29N 54°51' E 010°31'1 0.7
2020-Sep-17 14:30N 54°51' E 010°32'7 2.6
2020-Sep-17 12:00N 54°44' E 010°32'5 1.3
2020-Sep-17 07:55N 54°48' E 010°39'0 0.0
2020-Sep-17 07:25N 54°48' E 010°39'0 0.0
2020-Sep-17 06:58N 54°48' E 010°39'0 0.0
2020-Sep-17 06:28N 54°48' E 010°39'0 0.0
2020-Sep-17 03:28N 54°48' E 010°39'0 0.0
2020-Sep-17 02:58N 54°48' E 010°39'0 0.0
2020-Sep-17 01:28N 54°48' E 010°39'0 0.0
2020-Sep-17 00:58N 54°48' E 010°39'0 0.0
2020-Sep-17 00:28N 54°48' E 010°39'0 0.0
2020-Sep-16 23:58N 54°48' E 010°39'4 1.2
2020-Sep-16 20:30N 54°45' E 010°34'11 3.9
2020-Sep-16 17:46N 54°45' E 010°15'3 3.7
2020-Sep-16 17:00N 54°44' E 010°10'2 4.4
2020-Sep-16 16:27N 54°43' E 010°07'7 1.6
2020-Sep-16 11:56N 54°49' E 010°13'7 1.0
2020-Sep-16 04:59N 54°52' E 010°01'0 0.0
2020-Sep-16 04:26N 54°52' E 010°01'0 0.0
2020-Sep-16 03:50N 54°52' E 010°01'0 0.0
2020-Sep-16 02:59N 54°52' E 010°01'0 0.0
2020-Sep-15 23:59N 54°52' E 010°01'0 0.0
2020-Sep-15 23:26N 54°52' E 010°01'0 0.0
2020-Sep-15 22:14N 54°52' E 010°01'14 1.7
2020-Sep-15 14:00N 54°39' E 010°12'1 1.5
2020-Sep-15 13:31N 54°38' E 010°12'2 1.4
2020-Sep-15 12:01N 54°37' E 010°14'10 3.9
2020-Sep-15 09:30N 54°27' E 010°15'5 2.5
2020-Sep-15 07:22N 54°22' E 010°11'0 0.0
2020-Sep-15 05:25N 54°22' E 010°11'0 0.0
2020-Sep-15 02:58N 54°22' E 010°11'0 0.0
2020-Sep-15 01:58N 54°22' E 010°11'0 0.0
2020-Sep-14 20:58N 54°22' E 010°11'0 0.0
2020-Sep-14 19:49N 54°22' E 010°11'2 0.3
2020-Sep-14 14:30N 54°21' E 010°10'  
Track history (hours):
 
Tides and Currents Weather Stations Pressure Air Temp Water Temp Dewpoint Dewpoint Depression Visibility Wind Speed Wind Dir Waves Ship Positions

Thor Heyerdahl

Last reported at 2020-Sep-24 13:49 UTC. Time now 2020-Sep-26 09:08 UTC.
Position N 54°44' E 010°05'.

beam 6.5 m; draft 2.2 m.

Type: Sailing vessel. MMSI: 211232340.

Date/timePositionNaut miles runAvg speedWind from/ knotsBaromVisibWave heightAir tempDewpointWater temp
2020-Sep-24 13:49N 54°44' E 010°05'19 3.0
2020-Sep-24 07:28N 54°26' E 010°11'0 0.0
2020-Sep-24 06:19N 54°26' E 010°11'0 0.0
2020-Sep-24 05:19N 54°26' E 010°11'0 0.0
2020-Sep-24 02:55N 54°26' E 010°11'0 0.0
2020-Sep-24 02:25N 54°26' E 010°11'0 0.0
2020-Sep-24 01:55N 54°26' E 010°11'0 0.0
2020-Sep-23 21:28N 54°26' E 010°11'0 0.0
2020-Sep-23 19:58N 54°26' E 010°11'0 0.0
2020-Sep-23 19:16N 54°26' E 010°11'0 0.0
2020-Sep-23 18:58N 54°26' E 010°11'6 1.5
2020-Sep-23 14:52N 54°20' E 010°11'0 0.0
2020-Sep-23 13:55N 54°20' E 010°11'0 0.0
2020-Sep-23 11:55N 54°20' E 010°11'0 0.0
2020-Sep-23 10:58N 54°20' E 010°11'0 0.0
2020-Sep-23 10:28N 54°20' E 010°11'0 0.0
2020-Sep-23 01:52N 54°20' E 010°11'0 0.0
2020-Sep-22 22:55N 54°20' E 010°11'0 0.0
2020-Sep-22 16:28N 54°20' E 010°11'0 0.0
2020-Sep-22 15:58N 54°20' E 010°11'0 0.0
2020-Sep-22 15:28N 54°20' E 010°11'0 0.0
2020-Sep-22 11:52N 54°20' E 010°11'0 0.0
2020-Sep-22 10:52N 54°20' E 010°11'0 0.0
2020-Sep-22 09:55N 54°20' E 010°11'0 0.0
2020-Sep-22 09:25N 54°20' E 010°11'0 0.0
2020-Sep-22 07:55N 54°20' E 010°11'0 0.0
2020-Sep-22 07:28N 54°20' E 010°11'0 0.0
2020-Sep-22 06:58N 54°20' E 010°11'0 0.0
2020-Sep-22 04:58N 54°20' E 010°11'0 0.0
2020-Sep-22 03:58N 54°20' E 010°11'0 0.0
2020-Sep-22 03:16N 54°20' E 010°11'0 0.0
2020-Sep-21 22:52N 54°20' E 010°11'0 0.0
2020-Sep-21 21:52N 54°20' E 010°11'0 0.0
2020-Sep-21 21:22N 54°20' E 010°11'0 0.0
2020-Sep-21 20:25N 54°20' E 010°11'0 0.0
2020-Sep-21 17:28N 54°20' E 010°11'0 0.0
2020-Sep-21 15:58N 54°20' E 010°11'0 0.0
2020-Sep-21 13:58N 54°20' E 010°11'0 0.0
2020-Sep-21 10:19N 54°20' E 010°11'0 0.0
2020-Sep-21 08:22N 54°20' E 010°11'0 0.0
2020-Sep-21 07:22N 54°20' E 010°11'0 0.0
2020-Sep-21 05:25N 54°20' E 010°11'0 0.0
2020-Sep-21 01:28N 54°20' E 010°11'0 0.0
2020-Sep-21 00:28N 54°20' E 010°11'0 0.0
2020-Sep-20 23:28N 54°20' E 010°11'0 0.0
2020-Sep-20 19:22N 54°20' E 010°11'0 0.0
2020-Sep-20 18:52N 54°20' E 010°11'0 0.0
2020-Sep-20 17:52N 54°20' E 010°11'0 0.0
2020-Sep-20 17:22N 54°20' E 010°11'0 0.0
2020-Sep-20 16:52N 54°20' E 010°11'0 0.0
2020-Sep-20 16:25N 54°20' E 010°11'0 0.0
2020-Sep-20 15:55N 54°20' E 010°11'0 0.0
2020-Sep-20 14:22N 54°20' E 010°11'0 0.0
2020-Sep-20 12:28N 54°20' E 010°11'0 0.0
2020-Sep-20 11:58N 54°20' E 010°11'0 0.0
2020-Sep-20 11:28N 54°20' E 010°11'0 0.0
2020-Sep-20 10:28N 54°20' E 010°11'1 0.3
2020-Sep-20 08:30N 54°20' E 010°10'2 1.4
2020-Sep-20 06:59N 54°22' E 010°11'0 0.0
2020-Sep-20 05:59N 54°22' E 010°11'0 0.0
2020-Sep-19 23:59N 54°22' E 010°11'0 0.0
2020-Sep-19 20:29N 54°22' E 010°11'0 0.0
2020-Sep-19 18:56N 54°22' E 010°11'0 0.0
2020-Sep-19 17:29N 54°22' E 010°11'0 0.0
2020-Sep-19 16:29N 54°22' E 010°11'2 0.9
2020-Sep-19 14:00N 54°24' E 010°12'14 4.6
2020-Sep-19 11:01N 54°37' E 010°22'5 4.8
2020-Sep-19 10:01N 54°41' E 010°27'10 4.1
2020-Sep-19 07:28N 54°49' E 010°37'0 0.0
2020-Sep-19 06:55N 54°49' E 010°37'0 0.0
2020-Sep-19 04:49N 54°49' E 010°37'0 0.0
2020-Sep-19 04:25N 54°49' E 010°37'0 0.0
2020-Sep-19 02:25N 54°49' E 010°37'0 0.0
2020-Sep-19 01:22N 54°49' E 010°37'0 0.0
2020-Sep-18 23:25N 54°49' E 010°37'0 0.0
2020-Sep-18 22:25N 54°49' E 010°37'0 0.0
2020-Sep-18 19:55N 54°49' E 010°37'0 0.0
2020-Sep-18 18:55N 54°49' E 010°37'0 0.0
2020-Sep-18 17:55N 54°49' E 010°37'3 0.9
2020-Sep-18 15:00N 54°48' E 010°34'1 0.6
2020-Sep-18 13:30N 54°48' E 010°32'0 0.1
2020-Sep-18 10:30N 54°48' E 010°32'3 1.0
2020-Sep-18 07:26N 54°51' E 010°31'0 0.0
2020-Sep-18 06:56N 54°51' E 010°31'0 0.0
2020-Sep-18 04:50N 54°51' E 010°31'0 0.0
2020-Sep-18 02:44N 54°51' E 010°31'0 0.0
2020-Sep-18 01:26N 54°51' E 010°31'0 0.0
2020-Sep-18 00:56N 54°51' E 010°31'0 0.0
2020-Sep-17 19:26N 54°51' E 010°31'0 0.0
2020-Sep-17 16:59N 54°51' E 010°31'0 0.0
2020-Sep-17 15:29N 54°51' E 010°31'1 0.7
2020-Sep-17 14:30N 54°51' E 010°32'7 2.6
2020-Sep-17 12:00N 54°44' E 010°32'5 1.3
2020-Sep-17 07:55N 54°48' E 010°39'0 0.0
2020-Sep-17 07:25N 54°48' E 010°39'0 0.0
2020-Sep-17 06:58N 54°48' E 010°39'0 0.0
2020-Sep-17 06:28N 54°48' E 010°39'0 0.0
2020-Sep-17 03:28N 54°48' E 010°39'0 0.0
2020-Sep-17 02:58N 54°48' E 010°39'0 0.0
2020-Sep-17 01:28N 54°48' E 010°39'0 0.0
2020-Sep-17 00:58N 54°48' E 010°39'0 0.0
2020-Sep-17 00:28N 54°48' E 010°39'0 0.0
2020-Sep-16 23:58N 54°48' E 010°39'4 1.2
2020-Sep-16 20:30N 54°45' E 010°34'11 3.9
2020-Sep-16 17:46N 54°45' E 010°15'3 3.7
2020-Sep-16 17:00N 54°44' E 010°10'2 4.4
2020-Sep-16 16:27N 54°43' E 010°07'7 1.6
2020-Sep-16 11:56N 54°49' E 010°13'7 1.0
2020-Sep-16 04:59N 54°52' E 010°01'0 0.0
2020-Sep-16 04:26N 54°52' E 010°01'0 0.0
2020-Sep-16 03:50N 54°52' E 010°01'0 0.0
2020-Sep-16 02:59N 54°52' E 010°01'0 0.0
2020-Sep-15 23:59N 54°52' E 010°01'0 0.0
2020-Sep-15 23:26N 54°52' E 010°01'0 0.0
2020-Sep-15 22:14N 54°52' E 010°01'14 1.7
2020-Sep-15 14:00N 54°39' E 010°12'1 1.5
2020-Sep-15 13:31N 54°38' E 010°12'2 1.4
2020-Sep-15 12:01N 54°37' E 010°14'10 3.9
2020-Sep-15 09:30N 54°27' E 010°15'5 2.5
2020-Sep-15 07:22N 54°22' E 010°11'0 0.0
2020-Sep-15 05:25N 54°22' E 010°11'0 0.0
2020-Sep-15 02:58N 54°22' E 010°11'0 0.0
2020-Sep-15 01:58N 54°22' E 010°11'0 0.0
2020-Sep-14 20:58N 54°22' E 010°11'0 0.0
2020-Sep-14 19:49N 54°22' E 010°11'2 0.3
2020-Sep-14 14:30N 54°21' E 010°10'  

Dump ship's entire track history